createdAt,value
2022-09-16T00:00:31.359Z,22.56
2022-09-16T00:05:23.681Z,22.57
2022-09-16T00:10:16.376Z,22.54
2022-09-16T00:15:08.743Z,22.55
2022-09-16T00:20:01.526Z,22.53
2022-09-16T00:24:54.090Z,22.51
2022-09-16T00:29:46.895Z,22.49
2022-09-16T00:34:39.354Z,22.49
2022-09-16T00:39:31.946Z,22.47
2022-09-16T00:44:24.434Z,22.45
2022-09-16T00:49:17.201Z,22.43
2022-09-16T00:54:09.937Z,22.44
2022-09-16T00:59:02.388Z,22.44
2022-09-16T01:03:54.852Z,22.41
2022-09-16T01:08:47.659Z,22.43
2022-09-16T01:13:40.221Z,22.4
2022-09-16T01:18:32.949Z,22.39
2022-09-16T01:23:25.505Z,22.38
2022-09-16T01:28:18.242Z,22.37
2022-09-16T01:33:10.705Z,22.36
2022-09-16T01:38:03.306Z,22.37
2022-09-16T01:42:56.014Z,22.36
2022-09-16T01:47:48.766Z,22.36
2022-09-16T01:52:41.415Z,22.34
2022-09-16T01:57:34.101Z,22.38
2022-09-16T02:02:26.922Z,22.34
2022-09-16T02:07:19.304Z,22.31
2022-09-16T02:12:11.908Z,22.3
2022-09-16T02:17:04.509Z,22.29
2022-09-16T02:21:57.005Z,22.26
2022-09-16T02:26:49.450Z,22.25
2022-09-16T02:31:42.141Z,22.24
2022-09-16T02:36:34.748Z,22.24
2022-09-16T02:41:27.611Z,22.25
2022-09-16T02:46:20.276Z,22.23
2022-09-16T02:51:12.554Z,22.24
2022-09-16T02:56:05.140Z,22.23
2022-09-16T03:00:57.786Z,22.22
2022-09-16T03:05:50.185Z,22.18
2022-09-16T03:10:42.848Z,22.2
2022-09-16T03:15:35.499Z,22.21
2022-09-16T03:20:28.134Z,22.17
2022-09-16T03:25:20.659Z,22.16
2022-09-16T03:30:13.367Z,22.16
2022-09-16T03:35:06.025Z,22.14
2022-09-16T03:39:58.654Z,22.15
2022-09-16T03:44:51.315Z,22.14
2022-09-16T03:49:43.913Z,22.12
2022-09-16T03:54:36.490Z,22.12
2022-09-16T03:59:29.010Z,22.09
2022-09-16T04:04:21.530Z,22.08
2022-09-16T04:09:14.317Z,22.09
2022-09-16T04:14:06.956Z,22.09
2022-09-16T04:18:59.499Z,22.08
2022-09-16T04:23:51.918Z,22.08
2022-09-16T04:28:44.621Z,22.09
2022-09-16T04:33:37.107Z,22.03
2022-09-16T04:38:29.550Z,22.06
2022-09-16T04:43:22.154Z,22
2022-09-16T04:48:14.766Z,22.02
2022-09-16T04:53:07.618Z,22.05
2022-09-16T04:58:00.124Z,22.03
2022-09-16T05:02:52.635Z,22.11
2022-09-16T05:07:45.232Z,22.19
2022-09-16T05:12:37.872Z,22.1
2022-09-16T05:17:49.678Z,22.06
2022-09-16T05:22:22.429Z,22.11
2022-09-16T05:27:15.267Z,22.15
2022-09-16T05:32:07.958Z,22.05
2022-09-16T05:37:00.439Z,22.12
2022-09-16T05:41:53.219Z,22.16
2022-09-16T05:46:45.880Z,22.26
2022-09-16T05:51:38.759Z,22.32
2022-09-16T05:56:31.251Z,22.31
2022-09-16T06:01:24.100Z,22.42
2022-09-16T06:06:16.608Z,22.39
2022-09-16T06:11:09.187Z,22.39
2022-09-16T06:16:01.650Z,22.51
2022-09-16T06:20:54.347Z,22.54
2022-09-16T06:25:41.247Z,22.56
2022-09-16T06:30:35.364Z,22.47
2022-09-16T06:35:28.911Z,22.58
2022-09-16T06:40:21.449Z,22.52
2022-09-16T06:45:13.969Z,22.47
2022-09-16T06:50:06.844Z,22.52
2022-09-16T06:54:59.317Z,22.63
2022-09-16T06:59:52.081Z,22.54
2022-09-16T07:04:44.687Z,22.66
2022-09-16T07:09:37.667Z,22.54
2022-09-16T07:14:30.026Z,22.5
2022-09-16T07:19:22.832Z,22.69
2022-09-16T12:32:53.464Z,23.61
2022-09-16T12:37:34.609Z,23.85
2022-09-16T12:42:25.921Z,23.78
2022-09-16T12:47:18.444Z,23.64
2022-09-16T12:52:11.321Z,23.87
2022-09-16T12:57:03.858Z,23.99
2022-09-16T13:01:59.730Z,24.07
2022-09-16T13:06:49.012Z,24.04
2022-09-16T13:16:34.731Z,24.31
2022-09-16T13:21:27.169Z,24.21
2022-09-16T13:26:19.959Z,24.3
2022-09-16T13:31:12.758Z,24.21
2022-09-16T13:36:05.275Z,24.23
2022-09-16T13:40:57.875Z,24.18
2022-09-16T13:45:50.689Z,24.2
2022-09-16T13:50:43.478Z,24.31
2022-09-16T13:55:36.011Z,24.3
2022-09-16T14:00:31.079Z,24.27
2022-09-16T14:05:21.471Z,24.28
2022-09-16T14:10:14.075Z,24.29
2022-09-16T14:15:06.433Z,24.29
2022-09-16T14:19:59.266Z,24.29
2022-09-16T14:24:56.321Z,24.28
2022-09-16T14:29:44.403Z,24.25
2022-09-16T14:34:32.186Z,24.14
2022-09-16T14:39:24.642Z,24.1
2022-09-16T14:44:18.544Z,24.14
2022-09-16T14:49:11.461Z,24.08
2022-09-16T14:54:19.379Z,24.07
2022-09-16T14:58:56.639Z,24.05
2022-09-16T15:03:49.259Z,24.07
2022-09-16T15:08:46.269Z,23.99
2022-09-16T15:13:34.485Z,24
2022-09-16T15:18:27.960Z,23.98
2022-09-16T15:23:20.784Z,23.98
2022-09-16T15:28:13.594Z,23.97
2022-09-16T15:33:06.210Z,23.98
2022-09-16T15:37:59.045Z,23.99
2022-09-16T15:42:51.542Z,24.03
2022-09-16T15:47:44.226Z,24.02
2022-09-16T15:52:36.875Z,24
2022-09-16T15:57:29.688Z,24.03
2022-09-16T16:02:22.073Z,23.95
2022-09-16T16:07:15.043Z,23.98
2022-09-16T16:12:07.361Z,24
2022-09-16T16:17:12.568Z,24
2022-09-16T16:21:52.764Z,24.01
2022-09-16T16:26:45.736Z,24.01
2022-09-16T16:31:38.579Z,24.14
2022-09-16T16:36:31.186Z,24.07
2022-09-16T16:41:23.661Z,23.93
2022-09-16T16:46:16.525Z,23.97
2022-09-16T16:51:08.885Z,23.97
2022-09-16T16:56:01.684Z,24.12
2022-09-16T17:00:54.601Z,24.1
2022-09-16T17:05:47.785Z,24.16
2022-09-16T17:10:40.470Z,24.2
2022-09-16T17:15:33.387Z,24.21
2022-09-16T17:20:26.185Z,24.29
2022-09-16T17:25:18.937Z,24.26
2022-09-16T17:30:11.290Z,24.3
2022-09-16T17:35:04.097Z,24.38
2022-09-16T17:39:56.769Z,24.34
2022-09-16T17:44:49.265Z,24.36
2022-09-16T17:49:41.848Z,24.31
2022-09-16T17:54:34.485Z,24.43
2022-09-16T17:59:26.959Z,24.36
2022-09-16T18:04:19.934Z,24.37
2022-09-16T18:09:12.369Z,24.35
2022-09-16T18:14:04.913Z,24.44
2022-09-16T18:18:57.146Z,24.43
2022-09-16T18:23:49.971Z,24.42
2022-09-16T18:29:05.638Z,24.44
2022-09-16T18:33:34.805Z,24.38
2022-09-16T18:38:27.322Z,24.37
2022-09-16T18:43:20.205Z,24.35
2022-09-16T18:48:12.838Z,24.33
2022-09-16T18:53:05.334Z,24.27
2022-09-16T18:57:57.960Z,24.26
2022-09-16T19:02:50.822Z,24.23
2022-09-16T19:07:43.500Z,24.2
2022-09-16T19:12:39.193Z,24.16
2022-09-16T19:17:28.669Z,24.12
2022-09-16T19:22:21.444Z,24.09
2022-09-16T19:27:13.974Z,24.06
2022-09-16T19:32:06.763Z,24.04
2022-09-16T19:36:59.392Z,24.01
2022-09-16T19:41:52.166Z,23.95
2022-09-16T19:46:44.831Z,23.92
2022-09-16T19:51:37.354Z,23.91
2022-09-16T19:56:30.021Z,23.88
2022-09-16T20:01:23.178Z,23.86
2022-09-16T20:06:15.679Z,23.82
2022-09-16T20:11:08.793Z,23.75
2022-09-16T20:16:01.679Z,23.73
2022-09-16T20:20:54.553Z,23.73
2022-09-16T20:25:47.280Z,23.73
2022-09-16T20:30:40.172Z,23.73
2022-09-16T20:35:32.611Z,23.71
2022-09-16T20:40:25.428Z,23.68
2022-09-16T20:45:17.805Z,23.63
2022-09-16T20:50:10.380Z,23.61
2022-09-16T20:55:02.529Z,23.6
2022-09-16T20:59:54.945Z,23.59
2022-09-16T21:04:47.521Z,23.57
2022-09-16T21:09:39.993Z,23.57
2022-09-16T21:14:32.796Z,23.56
2022-09-16T21:19:25.616Z,23.52
2022-09-16T21:24:18.084Z,23.51
2022-09-16T21:29:10.953Z,23.49
2022-09-16T21:34:03.452Z,23.47
2022-09-16T21:38:56.355Z,23.45
2022-09-16T21:43:48.377Z,23.4
2022-09-16T21:48:41.200Z,23.4
2022-09-16T21:53:34.198Z,23.38
2022-09-16T21:58:26.332Z,23.37
2022-09-16T22:03:18.880Z,23.36
2022-09-16T22:08:11.481Z,23.36
2022-09-16T22:13:04.122Z,23.33
2022-09-16T22:17:57.005Z,23.33
2022-09-16T22:22:49.622Z,23.31
2022-09-16T22:27:42.269Z,23.3
2022-09-16T22:32:37.763Z,23.27
2022-09-16T22:37:27.620Z,23.24
2022-09-16T22:42:20.363Z,23.22
2022-09-16T22:47:12.831Z,23.21
2022-09-16T22:52:05.745Z,23.22
2022-09-16T22:56:58.372Z,23.2
2022-09-16T23:01:50.867Z,23.19
2022-09-16T23:06:43.320Z,23.15
2022-09-16T23:11:36.006Z,23.16
2022-09-16T23:16:28.567Z,23.12
2022-09-16T23:21:21.081Z,23.11
2022-09-16T23:26:13.534Z,23.07
2022-09-16T23:31:06.114Z,23.04
2022-09-16T23:35:59.007Z,23.05
2022-09-16T23:40:51.430Z,23.04
2022-09-16T23:45:44.106Z,23.04
2022-09-16T23:50:36.655Z,23.03
2022-09-16T23:55:29.451Z,23.02
